Time;durP1;ratioP1;P1;durP2;ratioP2;P2;SDS_P1;SDS_P2;PMS_P1;PMS_P2;Temp;Humidity;BMP_temperature;BMP_pressure;BME280_temperature;BME280_humidity;BME280_pressure;Samples;Min_cycle;Max_cycle;Signal;HPM_P1;HPM_P2
2021/05/03 02:48:20;;;;;;;13.85;12.50;;;6.50;99.90;;;;;;4992371;22;87641;-83
2021/05/03 02:50:46;;;;;;;14.55;13.18;;;6.50;99.90;;;;;;4937655;28;88016;-85
2021/05/03 02:53:12;;;;;;;14.98;13.65;;;6.50;99.90;;;;;;4951151;28;87256;-85
2021/05/03 02:55:46;;;;;;;16.70;15.23;;;6.40;99.90;;;;;;4949669;28;88080;-85
2021/05/03 02:58:11;;;;;;;15.43;14.07;;;6.40;99.90;;;;;;4949907;28;86132;-85
2021/05/03 03:00:37;;;;;;;16.27;14.85;;;6.30;99.90;;;;;;4948693;28;88727;-85
2021/05/03 03:03:04;;;;;;;17.83;16.45;;;6.40;99.90;;;;;;4949009;28;86844;-85
2021/05/03 03:05:30;;;;;;;18.65;17.05;;;6.30;99.90;;;;;;4946382;28;87076;-84
2021/05/03 03:08:01;;;;;;;16.45;14.90;;;6.20;99.90;;;;;;4950651;28;86879;-87
2021/05/03 03:10:27;;;;;;;19.70;18.08;;;6.10;99.90;;;;;;4949966;28;86848;-87
2021/05/03 03:12:54;;;;;;;29.00;27.13;;;6.10;99.90;;;;;;4945461;28;87721;-88
2021/05/03 03:15:19;;;;;;;26.02;24.25;;;6.10;99.90;;;;;;4949976;28;86949;-88
2021/05/03 03:17:52;;;;;;;19.27;17.75;;;6.10;99.90;;;;;;4950390;28;86924;-89
2021/05/03 03:20:19;;;;;;;23.08;21.42;;;6.10;99.90;;;;;;4948905;28;88625;-88
2021/05/03 03:22:45;;;;;;;25.67;23.90;;;6.10;99.90;;;;;;4935476;28;89919;-86
2021/05/03 03:25:13;;;;;;;31.88;29.77;;;6.10;99.90;;;;;;4933829;28;86911;-86
2021/05/03 03:27:38;;;;;;;28.05;26.25;;;6.20;99.90;;;;;;4950287;28;86933;-86
2021/05/03 03:30:14;;;;;;;28.45;26.38;;;6.10;99.90;;;;;;4958750;28;87981;-86
2021/05/03 03:32:44;;;;;;;28.10;26.20;;;6.10;99.90;;;;;;4942436;28;87023;-83
2021/05/03 03:35:11;;;;;;;33.83;31.77;;;6.10;99.90;;;;;;4948727;28;86337;-83
2021/05/03 03:37:37;;;;;;;33.38;31.30;;;6.10;99.90;;;;;;4951158;28;86249;-82
2021/05/03 03:40:05;;;;;;;32.42;30.33;;;6.10;99.90;;;;;;4954558;28;88232;-87
2021/05/03 03:42:30;;;;;;;34.85;32.70;;;6.10;99.90;;;;;;4933675;28;90021;-84
2021/05/03 03:44:57;;;;;;;36.72;34.42;;;6.10;99.90;;;;;;4943292;28;87807;-82
2021/05/03 03:47:24;;;;;;;35.22;33.08;;;6.10;99.90;;;;;;4946773;28;87168;-82
2021/05/03 03:49:49;;;;;;;25.63;23.77;;;6.10;99.90;;;;;;4949177;28;87426;-84
2021/05/03 03:52:15;;;;;;;21.35;19.95;;;6.10;99.90;;;;;;4948340;28;87143;-85
2021/05/03 03:54:43;;;;;;;27.08;25.10;;;6.00;99.90;;;;;;4949376;28;86930;-85
2021/05/03 03:57:09;;;;;;;19.83;18.23;;;;;;;;;;4948605;28;86967;-86
2021/05/03 03:59:41;;;;;;;27.30;25.10;;;6.00;99.90;;;;;;4943008;28;87192;-85
2021/05/03 04:02:07;;;;;;;25.75;23.77;;;6.00;99.90;;;;;;4935841;28;87053;-85
2021/05/03 04:04:34;;;;;;;25.85;23.85;;;6.00;99.90;;;;;;4935664;28;86939;-84
2021/05/03 04:07:07;;;;;;;22.00;20.20;;;;;;;;;;4942830;28;86972;-85
2021/05/03 04:10:01;;;;;;;19.33;17.65;;;5.90;99.90;;;;;;4942159;28;88560;-83
2021/05/03 04:23:43;;;;;;;17.80;16.23;;;;;;;;;;4913193;28;87013;-83
2021/05/03 04:25:55;;;;;;;14.63;13.23;;;5.90;99.90;;;;;;4941984;28;86618;-83
2021/05/03 04:28:21;;;;;;;16.02;13.90;;;6.00;99.90;;;;;;4942435;28;86451;-84
2021/05/03 04:30:47;;;;;;;13.82;12.43;;;6.00;99.90;;;;;;4944218;28;87565;-84
2021/05/03 04:33:12;;;;;;;13.63;12.25;;;6.10;99.90;;;;;;4946656;28;86916;-84
2021/05/03 04:35:38;;;;;;;16.20;14.57;;;6.10;99.90;;;;;;4946922;28;87084;-82
2021/05/03 04:38:04;;;;;;;16.77;13.65;;;6.20;99.90;;;;;;4941677;28;87053;-83
2021/05/03 04:40:30;;;;;;;14.77;13.23;;;6.30;99.90;;;;;;4945659;28;87061;-83
2021/05/03 04:42:55;;;;;;;16.58;14.85;;;6.30;99.90;;;;;;4947511;28;86878;-84
2021/05/03 04:45:21;;;;;;;18.00;16.10;;;6.30;99.90;;;;;;4949409;28;86910;-83
2021/05/03 04:47:47;;;;;;;20.00;18.23;;;6.20;99.90;;;;;;4946849;22;86960;-85
2021/05/03 04:50:12;;;;;;;19.30;17.38;;;6.30;99.90;;;;;;4929132;28;87286;-85
2021/05/03 04:52:39;;;;;;;20.75;18.95;;;6.20;99.90;;;;;;4917176;28;90656;-83
2021/05/03 04:55:05;;;;;;;21.83;20.13;;;6.20;99.90;;;;;;4947992;28;86856;-84
2021/05/03 04:57:31;;;;;;;20.73;18.83;;;6.30;99.90;;;;;;4948642;28;86428;-86
2021/05/03 04:59:57;;;;;;;18.95;17.05;;;;;;;;;;4935749;28;89162;-85
2021/05/03 05:02:24;;;;;;;18.35;16.55;;;6.30;99.90;;;;;;4941678;28;88404;-84
2021/05/03 05:04:50;;;;;;;17.38;15.60;;;6.20;99.90;;;;;;4932094;28;86666;-87
2021/05/03 05:07:20;;;;;;;17.23;15.43;;;6.30;99.90;;;;;;4932139;28;86702;-86
2021/05/03 05:09:46;;;;;;;18.30;16.50;;;6.40;99.90;;;;;;4936670;28;88303;-87
2021/05/03 05:12:11;;;;;;;19.80;18.00;;;6.40;99.90;;;;;;4942422;28;87031;-87
2021/05/03 05:14:43;;;;;;;21.23;19.20;;;6.50;99.90;;;;;;4935237;28;86944;-86
2021/05/03 05:17:10;;;;;;;20.52;18.52;;;6.60;99.90;;;;;;4934328;28;86105;-85
2021/05/03 05:19:35;;;;;;;20.13;18.10;;;6.70;99.90;;;;;;4943480;28;87008;-85
2021/05/03 05:22:01;;;;;;;18.58;16.73;;;6.70;99.90;;;;;;4941490;28;87677;-86
2021/05/03 05:24:27;;;;;;;19.10;17.30;;;6.70;99.90;;;;;;4938789;28;88284;-85
2021/05/03 05:26:53;;;;;;;21.20;19.30;;;;;;;;;;4950808;28;86801;-86
2021/05/03 05:29:19;;;;;;;22.65;20.67;;;6.70;99.90;;;;;;4932349;28;87239;-84
2021/05/03 05:31:45;;;;;;;23.40;21.27;;;6.70;99.90;;;;;;4935573;28;87903;-85
2021/05/03 05:34:10;;;;;;;21.30;19.45;;;6.70;99.90;;;;;;4937971;28;86717;-86
2021/05/03 05:36:36;;;;;;;22.25;20.40;;;6.70;99.90;;;;;;4935546;28;86604;-86
2021/05/03 05:39:02;;;;;;;25.00;23.13;;;;;;;;;;4915412;28;87787;-86
2021/05/03 05:41:28;;;;;;;24.90;22.58;;;6.90;99.90;;;;;;4936313;28;87296;-86
2021/05/03 05:43:54;;;;;;;26.77;24.48;;;7.00;99.90;;;;;;4938777;28;87093;-86
2021/05/03 05:46:20;;;;;;;24.65;22.63;;;7.30;99.90;;;;;;4936359;28;87096;-85
2021/05/03 05:48:47;;;;;;;20.60;18.73;;;7.30;99.90;;;;;;4924145;28;88164;-84
2021/05/03 05:51:13;;;;;;;15.93;14.38;;;7.50;99.90;;;;;;4911490;28;88138;-84
2021/05/03 05:53:39;;;;;;;15.55;14.15;;;7.60;99.90;;;;;;4919438;28;86869;-86
2021/05/03 05:56:05;;;;;;;15.52;13.77;;;7.90;99.90;;;;;;4923620;28;86768;-84
2021/05/03 05:58:32;;;;;;;15.52;14.02;;;8.00;99.90;;;;;;4910566;28;90322;-86
2021/05/03 06:01:00;;;;;;;16.25;14.95;;;8.10;99.90;;;;;;4913706;28;86948;-83
2021/05/03 06:03:26;;;;;;;14.65;13.35;;;8.20;99.90;;;;;;4911740;28;86451;-85
2021/05/03 06:05:52;;;;;;;15.50;14.00;;;8.30;99.90;;;;;;4917368;28;86339;-83
2021/05/03 06:08:17;;;;;;;12.40;11.02;;;8.30;99.90;;;;;;4927432;28;87073;-84
2021/05/03 06:10:43;;;;;;;12.73;11.52;;;8.40;99.90;;;;;;4924478;28;86907;-87
2021/05/03 06:13:09;;;;;;;14.07;12.70;;;8.40;99.90;;;;;;4917366;28;87648;-86
2021/05/03 06:15:35;;;;;;;13.02;11.93;;;8.40;99.90;;;;;;4914797;28;86664;-85
2021/05/03 06:18:12;;;;;;;14.68;13.30;;;8.30;99.90;;;;;;4916515;28;86653;-86
2021/05/03 06:20:39;;;;;;;11.73;10.50;;;8.30;99.90;;;;;;4911948;28;87002;-88
2021/05/03 06:23:07;;;;;;;11.80;10.80;;;8.30;99.90;;;;;;4905163;28;86937;-84
2021/05/03 06:25:34;;;;;;;12.38;11.27;;;8.20;99.90;;;;;;4924816;28;86804;-86
2021/05/03 06:28:00;;;;;;;12.43;11.32;;;8.30;99.90;;;;;;4923915;28;87266;-86
2021/05/03 06:30:26;;;;;;;10.32;9.43;;;8.40;99.90;;;;;;4924289;28;86803;-85
2021/05/03 06:32:53;;;;;;;11.52;10.43;;;8.60;99.90;;;;;;4912283;28;87048;-87
2021/05/03 06:35:20;;;;;;;11.20;10.30;;;8.80;99.90;;;;;;4921245;28;86670;-84
2021/05/03 06:37:46;;;;;;;11.07;10.07;;;8.90;99.90;;;;;;4912833;28;88544;-87
2021/05/03 06:40:12;;;;;;;11.68;10.77;;;9.00;99.90;;;;;;4914301;28;87147;-84
2021/05/03 06:42:40;;;;;;;12.20;11.07;;;9.00;99.90;;;;;;4915719;28;86870;-86
2021/05/03 06:45:07;;;;;;;12.90;11.82;;;9.00;99.90;;;;;;4912788;28;86970;-86
2021/05/03 06:47:32;;;;;;;13.35;12.45;;;9.00;99.90;;;;;;4911737;28;87348;-85
2021/05/03 06:49:58;;;;;;;13.45;12.32;;;9.10;99.90;;;;;;4920216;28;86987;-84
2021/05/03 06:52:24;;;;;;;14.48;13.43;;;9.30;99.90;;;;;;4921765;28;86864;-86
2021/05/03 06:54:57;;;;;;;15.93;14.80;;;9.40;99.90;;;;;;4923219;28;86254;-86
2021/05/03 06:57:23;;;;;;;14.65;13.48;;;9.50;99.90;;;;;;4914968;28;88220;-86
2021/05/03 06:59:48;;;;;;;11.95;11.00;;;9.50;99.90;;;;;;4918212;28;86969;-84
2021/05/03 07:02:14;;;;;;;11.90;11.05;;;9.50;99.90;;;;;;4925625;28;87949;-85
2021/05/03 07:04:48;;;;;;;13.65;12.75;;;9.40;99.90;;;;;;4919131;28;88783;-87
2021/05/03 07:07:14;;;;;;;14.07;13.05;;;9.40;99.90;;;;;;4917614;28;87005;-87
2021/05/03 07:09:42;;;;;;;14.98;13.55;;;9.40;99.90;;;;;;4910823;28;88508;-86
2021/05/03 07:12:09;;;;;;;13.18;12.07;;;9.50;99.90;;;;;;4930669;28;86809;-87
2021/05/03 07:14:38;;;;;;;13.82;12.73;;;9.60;99.90;;;;;;4912403;28;86847;-86
2021/05/03 07:17:06;;;;;;;14.88;13.85;;;9.70;99.90;;;;;;4915859;28;86935;-86
2021/05/03 07:19:36;;;;;;;15.88;14.77;;;9.80;99.90;;;;;;4915784;28;87513;-88
2021/05/03 07:22:06;;;;;;;14.95;13.88;;;9.80;99.90;;;;;;4915070;28;87259;-86
2021/05/03 07:24:32;;;;;;;14.35;13.32;;;;;;;;;;4929730;28;87000;-86
2021/05/03 07:26:58;;;;;;;12.35;11.55;;;10.10;99.90;;;;;;4927090;28;88105;-87
2021/05/03 07:29:24;;;;;;;14.68;13.68;;;10.40;99.90;;;;;;4914783;28;88187;-88
2021/05/03 07:31:50;;;;;;;14.07;13.18;;;;;;;;;;4918773;28;87104;-89
2021/05/03 07:34:17;;;;;;;21.73;20.52;;;10.50;99.90;;;;;;4927947;28;86836;-87
2021/05/03 07:36:43;;;;;;;18.55;17.45;;;10.50;99.90;;;;;;4922023;28;87082;-88
2021/05/03 07:39:09;;;;;;;25.45;24.08;;;10.60;99.90;;;;;;4916599;28;86976;-87
2021/05/03 07:41:35;;;;;;;18.40;17.20;;;10.70;99.90;;;;;;4934467;28;86929;-88
2021/05/03 07:44:02;;;;;;;24.15;22.75;;;10.70;99.90;;;;;;4925796;28;86163;-82
2021/05/03 07:46:28;;;;;;;19.17;18.10;;;11.00;99.90;;;;;;4925829;28;87896;-89
2021/05/03 07:48:56;;;;;;;11.35;10.45;;;11.00;99.90;;;;;;4920952;28;86754;-86
2021/05/03 07:51:22;;;;;;;11.63;10.73;;;11.00;99.90;;;;;;4920743;28;87830;-88
2021/05/03 07:53:48;;;;;;;15.68;14.60;;;11.10;99.90;;;;;;4927139;28;87098;-85
2021/05/03 07:56:15;;;;;;;13.48;12.45;;;11.60;99.90;;;;;;4920857;28;88748;-85
2021/05/03 07:58:45;;;;;;;26.33;24.70;;;12.20;98.90;;;;;;4929731;28;86924;-85
2021/05/03 08:01:12;;;;;;;12.70;11.80;;;12.20;98.10;;;;;;4914393;28;87252;-84
2021/05/03 08:03:40;;;;;;;10.77;9.98;;;12.20;97.60;;;;;;4905028;28;86975;-84
2021/05/03 08:06:07;;;;;;;11.05;10.20;;;12.20;96.60;;;;;;4910869;28;87743;-84
2021/05/03 08:08:33;;;;;;;11.38;10.48;;;12.20;96.80;;;;;;4919258;28;86159;-83
2021/05/03 08:10:59;;;;;;;12.95;11.95;;;12.20;97.30;;;;;;4916561;28;86897;-84
2021/05/03 08:13:28;;;;;;;11.27;10.40;;;12.20;97.80;;;;;;4917642;28;86962;-84
2021/05/03 08:15:56;;;;;;;10.73;9.95;;;12.30;96.20;;;;;;4913568;28;88623;-85
2021/05/03 08:18:21;;;;;;;14.05;13.15;;;12.30;96.10;;;;;;4897827;28;89509;-83
2021/05/03 08:20:47;;;;;;;12.23;11.23;;;12.40;95.70;;;;;;4913369;28;86846;-83
2021/05/03 08:23:19;;;;;;;20.20;18.98;;;12.80;96.10;;;;;;4909896;28;86982;-83
2021/05/03 08:25:47;;;;;;;18.90;17.77;;;13.00;94.60;;;;;;4919601;28;87043;-83
2021/05/03 08:28:13;;;;;;;24.42;23.13;;;13.40;93.40;;;;;;4921923;28;87923;-87
2021/05/03 08:30:38;;;;;;;27.20;25.80;;;13.60;91.70;;;;;;4925095;28;86951;-84
2021/05/03 08:33:04;;;;;;;13.13;12.23;;;13.70;91.20;;;;;;4922130;28;86156;-84
2021/05/03 08:35:30;;;;;;;10.95;10.00;;;13.50;87.60;;;;;;4910896;28;88122;-84
2021/05/03 08:37:56;;;;;;;10.43;9.63;;;13.50;90.40;;;;;;4910751;28;86820;-84
2021/05/03 08:40:22;;;;;;;20.50;19.25;;;13.20;89.40;;;;;;4910956;28;87893;-85
2021/05/03 08:42:47;;;;;;;19.80;18.55;;;13.00;87.10;;;;;;4913040;28;87094;-85
2021/05/03 08:45:14;;;;;;;29.00;27.42;;;12.80;87.00;;;;;;4930797;28;87088;-86
2021/05/03 08:47:51;;;;;;;16.65;15.63;;;12.70;87.80;;;;;;4911300;28;87003;-84
2021/05/03 08:50:25;;;;;;;12.88;11.82;;;12.70;90.40;;;;;;4912580;28;86814;-84
2021/05/03 08:52:55;;;;;;;12.98;11.82;;;12.80;91.90;;;;;;4929951;28;86157;-84
2021/05/03 08:55:21;;;;;;;14.02;13.02;;;12.80;92.90;;;;;;4916735;28;87220;-84
2021/05/03 08:57:53;;;;;;;13.77;12.77;;;12.80;92.90;;;;;;4926431;28;86968;-83
2021/05/03 09:00:19;;;;;;;12.68;11.77;;;12.80;93.00;;;;;;4926037;28;86895;-83
2021/05/03 09:02:46;;;;;;;11.93;11.00;;;12.80;93.50;;;;;;4913863;28;86611;-83
2021/05/03 09:05:13;;;;;;;11.80;10.88;;;12.70;93.00;;;;;;4916063;28;88755;-83
2021/05/03 09:07:56;;;;;;;11.10;10.40;;;12.80;93.20;;;;;;4928651;28;88175;-84
2021/05/03 09:10:22;;;;;;;14.38;13.43;;;12.90;94.00;;;;;;4916573;28;86230;-83
2021/05/03 09:12:48;;;;;;;17.65;16.45;;;12.90;94.60;;;;;;4917303;28;87010;-84
2021/05/03 09:15:24;;;;;;;12.88;11.98;;;13.10;94.80;;;;;;4914668;28;87940;-85
2021/05/03 09:17:54;;;;;;;12.30;11.40;;;13.30;93.70;;;;;;4918013;28;86835;-88
2021/05/03 09:20:22;;;;;;;11.15;10.23;;;13.60;93.60;;;;;;4914926;28;86736;-84
2021/05/03 09:23:06;;;;;;;11.57;10.77;;;13.90;92.80;;;;;;4918456;28;85737;-86
2021/05/03 09:25:43;;;;;;;11.00;10.10;;;14.50;91.50;;;;;;4910424;28;87732;-84
2021/05/03 09:28:20;;;;;;;14.98;13.98;;;15.80;88.60;;;;;;4923380;28;87084;-86
2021/05/03 09:30:48;;;;;;;13.32;12.43;;;17.90;79.50;;;;;;4917148;28;87558;-86
2021/05/03 09:33:30;;;;;;;17.75;16.75;;;20.00;71.70;;;;;;4934002;28;86366;-86
2021/05/03 09:35:57;;;;;;;21.23;19.98;;;21.90;61.50;;;;;;4919931;28;87712;-87
2021/05/03 09:38:36;;;;;;;27.98;26.50;;;25.30;53.00;;;;;;4912917;28;87723;-87
2021/05/03 09:41:29;;;;;;;25.48;24.33;;;28.30;45.30;;;;;;4917890;28;86431;-90
2021/05/03 09:43:57;;;;;;;28.02;26.63;;;31.50;35.10;;;;;;4911646;28;86987;-88
2021/05/03 09:46:40;;;;;;;61.40;58.92;;;33.00;33.40;;;;;;4921923;28;87409;-87
2021/05/03 09:49:10;;;;;;;92.28;88.55;;;33.00;32.90;;;;;;4917966;28;87603;-89
2021/05/03 09:51:50;;;;;;;37.83;36.10;;;32.00;31.70;;;;;;4906082;28;86776;-87
2021/05/03 09:54:25;;;;;;;29.90;28.38;;;29.70;31.80;;;;;;4920197;28;87038;-87
2021/05/03 09:56:54;;;;;;;78.03;74.78;;;27.60;34.90;;;;;;4895271;28;92842;-87
2021/05/03 09:59:37;;;;;;;117.30;112.35;;;26.30;36.50;;;;;;4928864;28;87249;-86
2021/05/03 10:02:22;;;;;;;182.20;174.48;;;24.80;36.80;;;;;;4920475;28;86993;-86
2021/05/03 10:04:55;;;;;;;278.15;112.63;;;23.70;38.50;;;;;;4911259;28;87094;-87
2021/05/03 10:07:22;;;;;;;67.28;60.33;;;22.60;41.50;;;;;;4920616;28;87511;-86
2021/05/03 10:09:53;;;;;;;71.57;66.82;;;21.70;42.40;;;;;;4914021;28;87006;-87
2021/05/03 10:12:19;;;;;;;39.35;35.63;;;20.90;43.80;;;;;;4908220;28;86804;-86
2021/05/03 10:14:46;;;;;;;54.35;33.80;;;20.00;46.00;;;;;;4915624;28;86263;-86
2021/05/03 10:17:15;;;;;;;87.43;63.65;;;18.30;58.80;;;;;;4900229;28;89915;-84
2021/05/03 10:19:41;;;;;;;160.27;150.18;;;18.70;49.40;;;;;;4918590;28;86619;-83
2021/05/03 10:22:08;;;;;;;141.05;132.27;;;18.40;50.60;;;;;;4918668;28;87788;-85
2021/05/03 10:24:34;;;;;;;133.30;124.43;;;18.10;50.00;;;;;;4923403;28;86806;-84
2021/05/03 10:27:00;;;;;;;46.67;42.38;;;17.60;50.60;;;;;;4923182;28;87279;-81
2021/05/03 10:29:27;;;;;;;48.17;31.83;;;17.50;51.10;;;;;;4920081;28;87184;-85
2021/05/03 10:31:59;;;;;;;33.28;30.23;;;18.30;51.90;;;;;;4914242;28;87087;-84
2021/05/03 10:34:50;;;;;;;19.23;17.30;;;23.70;54.10;;;;;;4915994;28;86969;-85
2021/05/03 10:37:31;;;;;;;65.70;62.10;;;24.90;41.70;;;;;;4924067;28;87096;-85
2021/05/03 10:40:14;;;;;;;17.90;16.00;;;28.40;36.80;;;;;;4916855;28;86955;-86
2021/05/03 10:43:02;;;;;;;64.28;61.15;;;30.90;34.80;;;;;;4922856;28;86941;-89
2021/05/03 10:48:56;;;;;;;32.45;30.45;;;31.80;29.10;;;;;;4914930;28;89238;-86
2021/05/03 10:54:17;;;;;;;84.20;80.43;;;28.40;30.30;;;;;;4929564;28;86924;-87
2021/05/03 10:56:43;;;;;;;91.40;87.70;;;26.80;32.50;;;;;;4906780;28;87091;-86
2021/05/03 10:59:13;;;;;;;100.03;95.88;;;25.20;34.10;;;;;;4919401;28;86905;-87
2021/05/03 11:01:54;;;;;;;32.05;30.55;;;23.70;35.50;;;;;;4919411;28;86960;-86
2021/05/03 11:04:28;;;;;;;26.17;24.85;;;22.50;36.80;;;;;;4926705;28;86860;-85
2021/05/03 11:06:57;;;;;;;29.60;28.17;;;21.40;38.10;;;;;;4911374;28;86126;-86
2021/05/03 11:09:27;;;;;;;51.13;48.75;;;20.60;39.80;;;;;;4917295;28;88487;-87
2021/05/03 11:15:26;;;;;;;18.85;17.83;;;19.70;42.30;;;;;;4918817;28;87146;-86
2021/05/03 11:18:20;;;;;;;23.17;21.92;;;23.80;44.40;;;;;;4915091;28;87182;-88
2021/05/03 11:21:06;;;;;;;19.17;18.17;;;26.80;35.40;;;;;;4912805;28;87683;-87
2021/05/03 11:23:34;;;;;;;44.33;42.25;;;27.10;34.70;;;;;;4917068;28;87072;-87
2021/05/03 11:25:59;;;;;;;39.13;37.35;;;29.60;33.80;;;;;;4919455;28;87802;-89
2021/05/03 11:28:31;;;;;;;66.20;63.45;;;31.50;31.10;;;;;;4924324;28;88236;-88
2021/05/03 11:31:01;;;;;;;112.80;108.28;;;33.10;29.80;;;;;;4913750;28;87342;-85
2021/05/03 11:33:39;;;;;;;36.97;35.20;;;34.00;28.80;;;;;;4927417;28;86301;-88
2021/05/03 11:36:13;;;;;;;26.92;25.73;;;33.90;27.40;;;;;;4919127;28;87136;-87
2021/05/03 11:46:39;;;;;;;24.85;23.75;;;29.60;30.00;;;;;;4913829;28;86971;-87
2021/05/03 11:49:10;;;;;;;31.02;29.60;;;27.10;30.40;;;;;;4922133;28;86815;-89
2021/05/03 11:51:52;;;;;;;28.15;26.85;;;27.30;30.60;;;;;;4912076;28;87270;-88
2021/05/03 11:54:42;;;;;;;16.63;15.73;;;26.00;31.40;;;;;;4913677;28;87045;-88
2021/05/03 11:57:19;;;;;;;34.10;32.60;;;24.90;33.90;;;;;;4912844;28;86666;-88
2021/05/03 11:59:46;;;;;;;85.78;82.25;;;24.80;34.70;;;;;;4914616;28;86109;-89
2021/05/03 12:02:14;;;;;;;37.78;36.08;;;26.20;34.10;;;;;;4927365;28;87218;-87
2021/05/03 12:04:45;;;;;;;26.08;24.77;;;27.30;31.60;;;;;;4929060;28;87054;-86
2021/05/03 12:07:22;;;;;;;19.30;18.40;;;28.30;30.80;;;;;;4914824;28;87738;-87
2021/05/03 12:10:04;;;;;;;28.98;27.65;;;29.40;29.90;;;;;;4930862;28;86457;-85
2021/05/03 12:12:40;;;;;;;27.98;26.75;;;31.10;28.90;;;;;;4946192;28;87354;-87
2021/05/03 12:15:20;;;;;;;35.75;34.25;;;32.30;28.50;;;;;;4930994;28;87486;-87
2021/05/03 12:17:46;;;;;;;63.30;60.65;;;33.50;28.90;;;;;;4920762;28;86549;-87
2021/05/03 12:20:17;;;;;;;175.57;168.60;;;34.50;27.90;;;;;;4931727;28;86927;-85
2021/05/03 12:23:03;;;;;;;49.33;47.33;;;35.20;27.40;;;;;;4929449;28;87134;-88
2021/05/03 12:25:57;;;;;;;55.58;53.25;;;35.50;26.60;;;;;;4916710;28;87124;-88
2021/05/03 12:28:24;;;;;;;71.90;68.95;;;35.50;25.30;;;;;;4909407;28;87048;-87
2021/05/03 12:30:55;;;;;;;25.45;24.35;;;35.90;25.40;;;;;;4915027;28;87001;-87
2021/05/03 12:33:21;;;;;;;19.08;18.23;;;35.40;25.30;;;;;;4920772;28;89639;-85
2021/05/03 12:35:49;;;;;;;43.55;41.80;;;35.40;25.50;;;;;;4912937;28;90593;-87
2021/05/03 12:38:20;;;;;;;29.33;28.05;;;35.80;24.90;;;;;;4916779;28;87018;-85
2021/05/03 12:40:46;;;;;;;39.95;38.22;;;36.00;25.20;;;;;;4927052;28;86647;-85
2021/05/03 12:43:13;;;;;;;34.83;33.28;;;36.40;25.30;;;;;;4921677;28;87126;-87
2021/05/03 12:46:03;;;;;;;19.92;19.13;;;36.30;25.70;;;;;;4917403;28;86969;-86
2021/05/03 12:51:18;;;;;;;19.27;18.43;;;36.00;25.30;;;;;;4923361;28;86476;-87
2021/05/03 12:53:54;;;;;;;25.13;24.02;;;36.20;25.70;;;;;;4929242;28;87163;-87
2021/05/03 12:56:26;;;;;;;30.67;29.30;;;36.00;24.70;;;;;;4921383;28;89469;-86
2021/05/03 13:07:37;;;;;;;30.75;29.48;;;35.10;24.20;;;;;;4923911;28;87056;-87
2021/05/03 13:29:45;;;;;;;39.95;38.28;;;32.30;25.80;;;;;;4924516;28;88476;-87
2021/05/03 13:32:15;;;;;;;37.15;35.55;;;32.00;26.20;;;;;;4934764;28;86770;-87
2021/05/03 13:34:41;;;;;;;26.90;25.80;;;31.80;26.00;;;;;;4911275;28;86991;-86
2021/05/03 13:37:07;;;;;;;26.30;25.10;;;31.60;26.70;;;;;;4913229;28;87014;-88
2021/05/03 13:39:32;;;;;;;27.40;26.13;;;31.40;26.30;;;;;;4918489;28;87017;-88
2021/05/03 13:41:58;;;;;;;27.13;25.92;;;31.40;26.70;;;;;;4923862;28;86945;-87
2021/05/03 13:44:24;;;;;;;29.95;28.67;;;31.30;27.20;;;;;;4920453;28;86127;-88
2021/05/03 13:46:50;;;;;;;26.15;24.98;;;31.10;27.00;;;;;;4924209;28;87670;-87
2021/05/03 13:49:16;;;;;;;44.83;42.92;;;30.90;27.00;;;;;;4919598;28;86891;-88
2021/05/03 13:51:43;;;;;;;26.60;25.40;;;30.80;27.10;;;;;;4904186;28;87866;-88
2021/05/03 13:54:10;;;;;;;40.47;38.78;;;30.60;26.80;;;;;;4917558;28;87080;-88
2021/05/03 13:56:36;;;;;;;29.30;28.00;;;30.70;26.80;;;;;;4896487;28;87277;-87
2021/05/03 13:59:02;;;;;;;48.80;46.78;;;30.10;27.10;;;;;;4913529;28;87469;-87
2021/05/03 14:01:27;;;;;;;60.58;57.92;;;30.10;27.40;;;;;;4913746;28;86936;-88
2021/05/03 14:03:55;;;;;;;52.15;49.90;;;30.00;27.40;;;;;;4923439;28;86624;-87
2021/05/03 14:06:20;;;;;;;70.78;67.78;;;30.00;27.50;;;;;;4921419;28;86962;-86
2021/05/03 14:08:52;;;;;;;94.75;90.88;;;29.50;27.50;;;;;;4940915;28;88625;-86
2021/05/03 14:11:18;;;;;;;141.60;135.90;;;;;;;;;;4922596;28;86964;-87
2021/05/03 14:13:44;;;;;;;160.32;153.98;;;29.10;27.70;;;;;;4934095;28;86728;-86
2021/05/03 14:16:11;;;;;;;157.73;151.27;;;28.60;27.10;;;;;;4942547;28;87636;-87
2021/05/03 14:18:37;;;;;;;146.75;140.68;;;28.80;27.50;;;;;;4914463;28;88015;-87
2021/05/03 14:21:08;;;;;;;131.73;126.45;;;28.80;28.20;;;;;;4913251;28;87007;-86
2021/05/03 14:23:34;;;;;;;136.05;130.73;;;28.70;28.00;;;;;;4913363;28;86843;-88
2021/05/03 14:26:03;;;;;;;165.50;158.93;;;28.10;27.90;;;;;;4903720;28;87068;-84
2021/05/03 14:28:34;;;;;;;151.75;145.63;;;28.00;28.30;;;;;;4924759;28;88655;-86
2021/05/03 14:31:44;;;;;;;154.95;148.82;;;27.80;28.30;;;;;;4943081;28;85946;-86
2021/05/03 14:33:55;;;;;;;167.07;160.40;;;27.50;28.30;;;;;;4913863;28;85946;-89
2021/05/03 14:36:20;;;;;;;114.38;109.88;;;27.10;28.50;;;;;;4898071;28;88292;-85
2021/05/03 14:38:46;;;;;;;115.93;111.28;;;26.70;29.00;;;;;;4919115;28;86298;-87
2021/05/03 14:41:12;;;;;;;102.38;98.28;;;26.40;29.60;;;;;;4910614;28;87659;-83
2021/05/03 14:43:38;;;;;;;138.68;133.13;;;25.90;28.90;;;;;;4925928;28;87001;-88
2021/05/03 14:46:17;;;;;;;110.60;106.10;;;26.00;29.10;;;;;;4933897;28;87348;-89
2021/05/03 14:48:59;;;;;;;92.72;89.00;;;25.70;29.80;;;;;;4923306;28;88146;-87
2021/05/03 14:56:34;;;;;;;59.40;56.88;;;24.70;30.80;;;;;;4913996;28;87197;-86
2021/05/03 14:59:00;;;;;;;78.13;74.95;;;24.50;30.20;;;;;;4921709;28;87464;-86
2021/05/03 15:01:26;;;;;;;77.57;74.40;;;24.40;30.90;;;;;;4920167;28;87027;-87
2021/05/03 15:03:52;;;;;;;86.60;83.22;;;24.30;30.50;;;;;;4922252;28;86964;-87
2021/05/03 15:06:19;;;;;;;86.93;83.47;;;24.30;31.00;;;;;;4923485;28;89023;-88
2021/05/03 15:08:44;;;;;;;97.35;93.53;;;24.30;31.10;;;;;;4911976;28;88064;-89
2021/05/03 15:11:10;;;;;;;116.57;112.10;;;24.00;31.50;;;;;;4914476;28;86821;-88
2021/05/03 15:13:44;;;;;;;156.18;150.20;;;23.80;32.40;;;;;;4923328;28;86895;-86
2021/05/03 15:21:37;;;;;;;91.10;87.43;;;23.20;32.60;;;;;;4912326;28;86959;-83
2021/05/03 15:24:16;;;;;;;171.82;164.68;;;22.90;32.40;;;;;;4925933;28;86201;-88
2021/05/03 15:26:56;;;;;;;158.60;151.85;;;22.80;33.30;;;;;;4919725;28;86962;-87
2021/05/03 15:34:22;;;;;;;233.40;223.68;;;22.20;34.60;;;;;;4918620;28;86956;-86
2021/05/03 15:36:56;;;;;;;149.27;143.23;;;22.00;34.10;;;;;;4918948;28;88346;-88
2021/05/03 15:39:21;;;;;;;189.00;181.30;;;21.80;34.50;;;;;;4921394;28;87955;-82
2021/05/03 15:41:47;;;;;;;141.77;136.10;;;21.60;33.80;;;;;;4904011;28;86865;-87
2021/05/03 15:44:49;;;;;;;166.45;159.88;;;21.50;34.90;;;;;;4927875;28;86779;-87
2021/05/03 15:47:15;;;;;;;151.75;145.63;;;21.30;35.20;;;;;;4925472;28;87902;-84
2021/05/03 15:49:41;;;;;;;105.45;101.25;;;21.10;35.00;;;;;;4918586;28;87364;-87
2021/05/03 15:52:06;;;;;;;106.30;101.88;;;20.90;35.10;;;;;;4920860;28;86678;-84
2021/05/03 15:54:32;;;;;;;70.75;67.65;;;20.80;35.40;;;;;;4919361;28;86639;-87
2021/05/03 15:56:58;;;;;;;50.78;48.58;;;;;;;;;;4927467;28;88334;-87
2021/05/03 15:59:24;;;;;;;80.13;76.78;;;20.40;35.80;;;;;;4917941;28;87223;-84
2021/05/03 16:01:51;;;;;;;97.68;93.78;;;20.30;37.60;;;;;;4914582;28;86635;-84
2021/05/03 16:04:16;;;;;;;51.20;49.00;;;19.80;43.20;;;;;;4908690;28;86880;-85
2021/05/03 16:06:42;;;;;;;86.55;83.03;;;20.00;36.70;;;;;;4908144;28;87143;-85
2021/05/03 16:09:08;;;;;;;73.18;70.22;;;20.00;36.70;;;;;;4907384;28;87220;-87
2021/05/03 16:11:43;;;;;;;102.68;98.35;;;19.80;36.60;;;;;;4919417;28;87241;-84
2021/05/03 16:14:09;;;;;;;97.47;93.43;;;19.60;36.90;;;;;;4912753;28;86062;-85
2021/05/03 16:16:35;;;;;;;93.20;89.40;;;19.90;46.00;;;;;;4915124;28;87237;-84
2021/05/03 16:19:01;;;;;;;124.07;118.82;;;19.30;37.10;;;;;;4916265;28;88057;-85
2021/05/03 16:21:27;;;;;;;160.68;154.00;;;19.10;37.30;;;;;;4917534;28;87871;-84
2021/05/03 16:23:53;;;;;;;158.02;151.52;;;19.00;38.60;;;;;;4908065;28;86767;-85
2021/05/03 16:26:20;;;;;;;129.68;124.47;;;19.00;38.20;;;;;;4906645;28;86903;-84
2021/05/03 16:28:46;;;;;;;144.88;138.95;;;18.90;38.20;;;;;;4909263;28;87600;-83
2021/05/03 16:31:11;;;;;;;101.85;97.70;;;18.80;37.90;;;;;;4917578;28;87052;-84
2021/05/03 16:33:38;;;;;;;51.38;49.13;;;;;;;;;;4912014;28;87091;-85
2021/05/03 16:36:04;;;;;;;51.35;49.05;;;18.40;37.80;;;;;;4910017;28;87293;-83
2021/05/03 16:38:30;;;;;;;34.58;33.03;;;18.40;38.80;;;;;;4910203;28;88335;-83
2021/05/03 16:40:57;;;;;;;18.92;17.73;;;18.20;39.10;;;;;;4910059;28;86733;-84
2021/05/03 16:43:23;;;;;;;14.50;13.68;;;18.10;40.00;;;;;;4914627;28;88109;-84